Неизвестная ошибка (Warning): строка 43 файла /metar/Service/MetarService.php
Описание:
file_get_contents(https://www.aviationweather.gov/adds/metars/?station_ids=UNAA&std_trans=standard&chk_metars=on&hoursStr=most+recent+only&submitmet=Submit): Failed to open stream: HTTP request failed! HTTP/1.1 403 Forbidden
Трассировка:
 #1 metar/Service/MetarService.php, line=43, function=file_get_contents()
  #2 metar/Service/MetarService.php, line=18, function=getFromAviationweatherGov()
   #3 metar/index.php, line=30, function=getMetarString()
    #4 index.php, line=1, function=include()
Погода для параплана Кемерово под Лысую гору

Погода METAR - Абакан

Кемерово, Абакан, Красноярск, Новосибирск
Код METAR: UNAA 241630Z 15001MPS CAVOK 15/05 Q1013 R02/CLRD65 NOSIG RMK QFE737

Погода - Сейчас

Время: 2024-05-24 23:30, местное
Направление ветра: Юг-юго-восток (150°)
Скорость ветра: 1 м/с
Видимость: более 10км, отсутствие осадков и облаков
Температура: 15°C
Точка росы: 5°C
Атмосферное давление: 1013 гПа

Архив погоды

Время, местное Направление Скорость, м/с Температура, °C Точка росы, °C Давление, гПа
2024-05-24 23:30 ЮЮВ (150°) 1 15 5 1013
2024-05-22 15:30 З (270°) 4 19 9 1015
2024-05-22 00:30 ЗЮЗ (240°) 1 13 13 1016
2024-05-19 12:00 ЮЗ (210°) 2 20 5 1007
2024-05-17 02:30 ССЗ (340°) 2 4 -2 1022
2024-05-16 22:30 СВ (30°) 2 7 2 1020
2024-05-16 14:00 ССВ (20°) 2 11 -3 1018
2024-05-16 12:30 ЗЮЗ (250°) 2 11 -4 1019
2024-05-16 10:00 ССВ (20°) 1 7 -4 1020
2024-05-14 05:00 Штиль 0 6 4 1014
2024-05-14 00:30 Штиль 0 9 4 1017
2024-05-13 08:00 Штиль 0 11 5 1026
2024-05-10 08:30 Штиль 0 11 1 1019
2024-05-07 05:30 Ю (190°) 1 4 2 1028
2024-05-06 17:30 ЮЗ (230°) 5 16 4 1018
2024-05-02 21:30 ЮВ (120°) 4 10 0 1009
2024-04-25 16:00 С (10°) 5 3 -10 1024
2024-04-24 06:00 СВ (40°) 3 -4 -8 1017
2024-04-22 15:00 С (10°) 4 15 5 1007
2024-04-20 23:00 С (350°) 4 4 -2 1024
2024-04-18 22:00 ЮЗ (210°) 3 9 4 1018
2024-04-18 06:00 В (80°) 1 4 1 1017
2024-04-16 21:30 ССВ (20°) 3 5 -4 1022
2024-04-15 17:00 ЗЮЗ (240°) 8 19 0 1008
2024-04-11 06:30 СВ (50°) 2 3 1 1009
2024-04-07 13:00 Штиль 0 18 3 1015
2024-04-07 00:00 Штиль 0 3 0 1015
2024-04-03 23:00 Штиль 0 1 0 1022
2024-04-02 11:00 ЮЮЗ (200°) 3 8 -2 1021
2024-03-30 11:00 Ю (190°) 2 10 0 1013
2024-03-30 06:30 Штиль 0 0 -2 1014
2024-03-29 15:30 ЮЗ (220°) 3 5 3 1011
2024-03-29 06:30 Штиль 0 -1 -2 1010
2024-03-28 23:00 Штиль 0 1 -2 1012
2024-03-28 13:30 Штиль 0 7 -5 1013
2024-03-23 08:30 Штиль 0 -4 -6 1017
2024-03-22 09:30 Ю (190°) 5 -5 -10 1015
2024-03-13 08:00 Ю (190°) 1 -1 -3 1004
2024-03-12 18:00 Ю (190°) 3 4 -6 1017
2024-03-10 05:00 Штиль 0 -9 -10 1021
2024-03-10 01:00 Штиль 0 -7 -8 1022
2024-03-09 04:30 ЗЮЗ (260°) 1 -6 -10 1025
2024-03-06 15:00 ЮЗ (210°) 5 4 -7 1021
2024-03-06 10:00 ЮЮЗ (200°) 3 -2 -8 1023
2024-03-03 18:30 Штиль 0 -11 -14 1022
2024-02-29 03:30 Ю (190°) 1 -18 -20 1035
2024-02-28 15:30 Штиль 0 -10 -17 1040
2024-02-26 20:30 ССЗ (340°) 1 -15 -18 1034